sensor_id;sensor_type;location;lat;lon;timestamp;temperature;humidity
18408;DHT22;9330;52.210;21.174;2023-02-02T00:01:18;2.70;99.90
18408;DHT22;9330;52.210;21.174;2023-02-02T00:03:47;2.70;99.90
18408;DHT22;9330;52.210;21.174;2023-02-02T00:06:15;2.70;99.90
18408;DHT22;9330;52.210;21.174;2023-02-02T00:08:42;2.60;99.90
18408;DHT22;9330;52.210;21.174;2023-02-02T00:11:09;2.70;99.90
18408;DHT22;9330;52.210;21.174;2023-02-02T00:13:37;2.70;99.90
18408;DHT22;9330;52.210;21.174;2023-02-02T00:16:38;2.70;99.90
18408;DHT22;9330;52.210;21.174;2023-02-02T00:19:08;2.70;99.90
18408;DHT22;9330;52.210;21.174;2023-02-02T00:21:35;2.70;99.90
18408;DHT22;9330;52.210;21.174;2023-02-02T00:24:04;2.70;99.90
18408;DHT22;9330;52.210;21.174;2023-02-02T00:26:31;2.70;99.90
18408;DHT22;9330;52.210;21.174;2023-02-02T00:28:58;2.70;99.90
18408;DHT22;9330;52.210;21.174;2023-02-02T00:31:25;2.70;99.90
18408;DHT22;9330;52.210;21.174;2023-02-02T00:33:55;2.80;99.90
18408;DHT22;9330;52.210;21.174;2023-02-02T00:36:23;2.70;99.90
18408;DHT22;9330;52.210;21.174;2023-02-02T00:38:50;2.70;99.90
18408;DHT22;9330;52.210;21.174;2023-02-02T00:41:18;2.80;99.90
18408;DHT22;9330;52.210;21.174;2023-02-02T00:43:45;2.70;99.90
18408;DHT22;9330;52.210;21.174;2023-02-02T00:46:33;2.70;99.90
18408;DHT22;9330;52.210;21.174;2023-02-02T00:48:59;2.70;99.90
18408;DHT22;9330;52.210;21.174;2023-02-02T00:51:27;2.80;99.90
18408;DHT22;9330;52.210;21.174;2023-02-02T00:53:54;2.80;99.90
18408;DHT22;9330;52.210;21.174;2023-02-02T00:56:21;2.70;99.90
18408;DHT22;9330;52.210;21.174;2023-02-02T00:58:47;2.70;99.90
18408;DHT22;9330;52.210;21.174;2023-02-02T01:01:15;2.70;99.90
18408;DHT22;9330;52.210;21.174;2023-02-02T01:03:42;2.70;99.90
18408;DHT22;9330;52.210;21.174;2023-02-02T01:06:10;2.80;99.90
18408;DHT22;9330;52.210;21.174;2023-02-02T01:08:38;2.70;99.90
18408;DHT22;9330;52.210;21.174;2023-02-02T01:11:05;2.70;99.90
18408;DHT22;9330;52.210;21.174;2023-02-02T01:13:32;2.70;99.90
18408;DHT22;9330;52.210;21.174;2023-02-02T01:16:00;2.70;99.90
18408;DHT22;9330;52.210;21.174;2023-02-02T01:18:28;2.80;99.90
18408;DHT22;9330;52.210;21.174;2023-02-02T01:20:58;2.70;99.90
18408;DHT22;9330;52.210;21.174;2023-02-02T01:23:25;2.60;99.90
18408;DHT22;9330;52.210;21.174;2023-02-02T01:25:54;2.60;99.90
18408;DHT22;9330;52.210;21.174;2023-02-02T01:28:22;2.40;99.90
18408;DHT22;9330;52.210;21.174;2023-02-02T01:30:49;2.30;99.90
18408;DHT22;9330;52.210;21.174;2023-02-02T01:33:18;2.30;99.90
18408;DHT22;9330;52.210;21.174;2023-02-02T01:35:46;2.30;99.90
18408;DHT22;9330;52.210;21.174;2023-02-02T01:38:14;2.00;99.90
18408;DHT22;9330;52.210;21.174;2023-02-02T01:40:45;1.90;99.90
18408;DHT22;9330;52.210;21.174;2023-02-02T01:43:21;1.80;99.90
18408;DHT22;9330;52.210;21.174;2023-02-02T01:45:49;1.70;99.90
18408;DHT22;9330;52.210;21.174;2023-02-02T01:48:17;1.60;99.90
18408;DHT22;9330;52.210;21.174;2023-02-02T01:50:45;1.50;99.90
18408;DHT22;9330;52.210;21.174;2023-02-02T01:53:13;1.40;99.90
18408;DHT22;9330;52.210;21.174;2023-02-02T01:55:40;1.40;99.90
18408;DHT22;9330;52.210;21.174;2023-02-02T01:58:10;1.40;99.90
18408;DHT22;9330;52.210;21.174;2023-02-02T02:00:42;1.30;99.90
18408;DHT22;9330;52.210;21.174;2023-02-02T02:03:12;1.40;99.90
18408;DHT22;9330;52.210;21.174;2023-02-02T02:05:42;1.30;99.90
18408;DHT22;9330;52.210;21.174;2023-02-02T02:08:14;1.30;99.90
18408;DHT22;9330;52.210;21.174;2023-02-02T02:10:42;1.30;99.90
18408;DHT22;9330;52.210;21.174;2023-02-02T02:13:10;1.20;99.90
18408;DHT22;9330;52.210;21.174;2023-02-02T02:15:42;1.30;99.90
18408;DHT22;9330;52.210;21.174;2023-02-02T02:18:37;1.30;99.90
18408;DHT22;9330;52.210;21.174;2023-02-02T02:21:22;1.20;99.90
18408;DHT22;9330;52.210;21.174;2023-02-02T02:31:18;1.30;99.90
18408;DHT22;9330;52.210;21.174;2023-02-02T02:33:55;1.30;99.90
18408;DHT22;9330;52.210;21.174;2023-02-02T02:36:28;1.50;99.90
18408;DHT22;9330;52.210;21.174;2023-02-02T02:39:05;1.30;99.90
18408;DHT22;9330;52.210;21.174;2023-02-02T02:41:40;1.30;99.90
18408;DHT22;9330;52.210;21.174;2023-02-02T02:44:12;1.50;99.90
18408;DHT22;9330;52.210;21.174;2023-02-02T02:46:40;1.40;99.90
18408;DHT22;9330;52.210;21.174;2023-02-02T02:49:10;1.30;99.90
18408;DHT22;9330;52.210;21.174;2023-02-02T02:51:44;1.40;99.90
18408;DHT22;9330;52.210;21.174;2023-02-02T02:54:12;1.40;99.90
18408;DHT22;9330;52.210;21.174;2023-02-02T02:56:53;1.50;99.90
18408;DHT22;9330;52.210;21.174;2023-02-02T02:59:33;1.50;99.90
18408;DHT22;9330;52.210;21.174;2023-02-02T03:02:09;1.60;99.90
18408;DHT22;9330;52.210;21.174;2023-02-02T03:04:47;1.70;99.90
18408;DHT22;9330;52.210;21.174;2023-02-02T03:07:20;1.70;99.90
18408;DHT22;9330;52.210;21.174;2023-02-02T03:09:49;1.80;99.90
18408;DHT22;9330;52.210;21.174;2023-02-02T03:12:17;1.80;99.90
18408;DHT22;9330;52.210;21.174;2023-02-02T03:14:44;1.90;99.90
18408;DHT22;9330;52.210;21.174;2023-02-02T03:17:11;2.00;99.90
18408;DHT22;9330;52.210;21.174;2023-02-02T03:19:38;1.90;99.90
18408;DHT22;9330;52.210;21.174;2023-02-02T03:22:06;2.00;99.90
18408;DHT22;9330;52.210;21.174;2023-02-02T03:24:33;2.00;99.90
18408;DHT22;9330;52.210;21.174;2023-02-02T03:27:00;2.00;99.90
18408;DHT22;9330;52.210;21.174;2023-02-02T03:29:27;2.00;99.90
18408;DHT22;9330;52.210;21.174;2023-02-02T03:31:54;1.90;99.90
18408;DHT22;9330;52.210;21.174;2023-02-02T03:34:21;2.00;99.90
18408;DHT22;9330;52.210;21.174;2023-02-02T03:36:48;2.10;99.90
18408;DHT22;9330;52.210;21.174;2023-02-02T03:39:16;2.00;99.90
18408;DHT22;9330;52.210;21.174;2023-02-02T03:41:43;2.10;99.90
18408;DHT22;9330;52.210;21.174;2023-02-02T03:44:10;2.10;99.90
18408;DHT22;9330;52.210;21.174;2023-02-02T03:46:37;2.10;99.90
18408;DHT22;9330;52.210;21.174;2023-02-02T03:49:03;2.20;99.90
18408;DHT22;9330;52.210;21.174;2023-02-02T03:51:30;2.30;99.90
18408;DHT22;9330;52.210;21.174;2023-02-02T03:53:57;2.20;99.90
18408;DHT22;9330;52.210;21.174;2023-02-02T03:56:25;2.30;99.90
18408;DHT22;9330;52.210;21.174;2023-02-02T03:58:52;2.30;99.90
18408;DHT22;9330;52.210;21.174;2023-02-02T04:01:25;2.30;99.90
18408;DHT22;9330;52.210;21.174;2023-02-02T04:03:53;2.30;99.90
18408;DHT22;9330;52.210;21.174;2023-02-02T04:06:20;2.40;99.90
18408;DHT22;9330;52.210;21.174;2023-02-02T04:08:47;2.60;99.90
18408;DHT22;9330;52.210;21.174;2023-02-02T04:11:14;2.40;99.90
18408;DHT22;9330;52.210;21.174;2023-02-02T04:13:42;2.50;99.90
18408;DHT22;9330;52.210;21.174;2023-02-02T04:16:10;2.50;99.90
18408;DHT22;9330;52.210;21.174;2023-02-02T04:18:37;2.50;99.90
18408;DHT22;9330;52.210;21.174;2023-02-02T04:21:05;2.50;99.90
18408;DHT22;9330;52.210;21.174;2023-02-02T04:23:33;2.60;99.90
18408;DHT22;9330;52.210;21.174;2023-02-02T04:26:00;2.60;99.90
18408;DHT22;9330;52.210;21.174;2023-02-02T04:28:27;2.60;99.90
18408;DHT22;9330;52.210;21.174;2023-02-02T04:30:56;2.60;99.90
18408;DHT22;9330;52.210;21.174;2023-02-02T04:33:25;2.70;99.90
18408;DHT22;9330;52.210;21.174;2023-02-02T04:35:52;2.60;99.90
18408;DHT22;9330;52.210;21.174;2023-02-02T04:38:19;2.70;99.90
18408;DHT22;9330;52.210;21.174;2023-02-02T04:40:47;2.70;99.90
18408;DHT22;9330;52.210;21.174;2023-02-02T04:43:14;2.60;99.90
18408;DHT22;9330;52.210;21.174;2023-02-02T04:45:41;2.70;99.90
18408;DHT22;9330;52.210;21.174;2023-02-02T04:48:09;2.70;99.90
18408;DHT22;9330;52.210;21.174;2023-02-02T04:50:37;2.70;99.90
18408;DHT22;9330;52.210;21.174;2023-02-02T04:53:04;2.80;99.90
18408;DHT22;9330;52.210;21.174;2023-02-02T04:55:35;2.80;99.90
18408;DHT22;9330;52.210;21.174;2023-02-02T04:58:03;2.80;99.90
18408;DHT22;9330;52.210;21.174;2023-02-02T05:00:30;2.70;99.90
18408;DHT22;9330;52.210;21.174;2023-02-02T05:02:57;2.80;99.90
18408;DHT22;9330;52.210;21.174;2023-02-02T05:05:25;2.80;99.90
18408;DHT22;9330;52.210;21.174;2023-02-02T05:07:52;2.80;99.90
18408;DHT22;9330;52.210;21.174;2023-02-02T05:10:19;2.80;99.90
18408;DHT22;9330;52.210;21.174;2023-02-02T05:12:46;2.90;99.90
18408;DHT22;9330;52.210;21.174;2023-02-02T05:15:13;2.80;99.90
18408;DHT22;9330;52.210;21.174;2023-02-02T05:17:39;2.90;99.90
18408;DHT22;9330;52.210;21.174;2023-02-02T05:20:07;2.90;99.90
18408;DHT22;9330;52.210;21.174;2023-02-02T05:22:36;2.80;99.90
18408;DHT22;9330;52.210;21.174;2023-02-02T05:25:03;2.80;99.90
18408;DHT22;9330;52.210;21.174;2023-02-02T05:27:30;2.90;99.90
18408;DHT22;9330;52.210;21.174;2023-02-02T05:29:57;2.90;99.90
18408;DHT22;9330;52.210;21.174;2023-02-02T05:32:24;2.80;99.90
18408;DHT22;9330;52.210;21.174;2023-02-02T05:34:52;2.80;99.90
18408;DHT22;9330;52.210;21.174;2023-02-02T05:37:19;2.90;99.90
18408;DHT22;9330;52.210;21.174;2023-02-02T05:39:47;2.80;99.90
18408;DHT22;9330;52.210;21.174;2023-02-02T05:42:16;2.90;99.90
18408;DHT22;9330;52.210;21.174;2023-02-02T05:44:43;2.90;99.90
18408;DHT22;9330;52.210;21.174;2023-02-02T05:47:10;3.00;99.90
18408;DHT22;9330;52.210;21.174;2023-02-02T05:49:37;2.80;99.90
18408;DHT22;9330;52.210;21.174;2023-02-02T05:52:04;2.90;99.90
18408;DHT22;9330;52.210;21.174;2023-02-02T05:54:31;2.90;99.90
18408;DHT22;9330;52.210;21.174;2023-02-02T05:56:59;2.80;99.90
18408;DHT22;9330;52.210;21.174;2023-02-02T05:59:27;2.90;99.90
18408;DHT22;9330;52.210;21.174;2023-02-02T06:01:54;2.80;99.90
18408;DHT22;9330;52.210;21.174;2023-02-02T06:04:21;2.90;99.90
18408;DHT22;9330;52.210;21.174;2023-02-02T06:06:48;2.90;99.90
18408;DHT22;9330;52.210;21.174;2023-02-02T06:09:15;2.90;99.90
18408;DHT22;9330;52.210;21.174;2023-02-02T06:11:42;2.80;99.90
18408;DHT22;9330;52.210;21.174;2023-02-02T06:14:10;2.80;99.90
18408;DHT22;9330;52.210;21.174;2023-02-02T06:16:37;2.90;99.90
18408;DHT22;9330;52.210;21.174;2023-02-02T06:19:05;2.80;99.90
18408;DHT22;9330;52.210;21.174;2023-02-02T06:21:32;2.90;99.90
18408;DHT22;9330;52.210;21.174;2023-02-02T06:23:58;2.90;99.90
18408;DHT22;9330;52.210;21.174;2023-02-02T06:26:26;2.90;99.90
18408;DHT22;9330;52.210;21.174;2023-02-02T06:28:54;2.90;99.90
18408;DHT22;9330;52.210;21.174;2023-02-02T06:31:22;2.90;99.90
18408;DHT22;9330;52.210;21.174;2023-02-02T06:33:53;2.90;99.90
18408;DHT22;9330;52.210;21.174;2023-02-02T06:36:20;2.90;99.90
18408;DHT22;9330;52.210;21.174;2023-02-02T06:38:48;2.90;99.90
18408;DHT22;9330;52.210;21.174;2023-02-02T06:41:15;2.90;99.90
18408;DHT22;9330;52.210;21.174;2023-02-02T06:43:42;2.90;99.90
18408;DHT22;9330;52.210;21.174;2023-02-02T06:46:09;2.90;99.90
18408;DHT22;9330;52.210;21.174;2023-02-02T06:48:37;3.00;99.90
18408;DHT22;9330;52.210;21.174;2023-02-02T06:51:04;3.00;99.90
18408;DHT22;9330;52.210;21.174;2023-02-02T06:53:32;3.00;99.90
18408;DHT22;9330;52.210;21.174;2023-02-02T06:56:00;3.00;99.90
18408;DHT22;9330;52.210;21.174;2023-02-02T06:58:29;3.00;99.90
18408;DHT22;9330;52.210;21.174;2023-02-02T07:01:00;3.10;99.90
18408;DHT22;9330;52.210;21.174;2023-02-02T07:03:29;3.20;99.90
18408;DHT22;9330;52.210;21.174;2023-02-02T07:05:58;3.10;99.90
18408;DHT22;9330;52.210;21.174;2023-02-02T07:08:25;3.10;99.90
18408;DHT22;9330;52.210;21.174;2023-02-02T07:10:51;3.10;99.90
18408;DHT22;9330;52.210;21.174;2023-02-02T07:13:18;3.10;99.90
18408;DHT22;9330;52.210;21.174;2023-02-02T07:15:45;3.10;99.90
18408;DHT22;9330;52.210;21.174;2023-02-02T07:18:13;3.30;99.90
18408;DHT22;9330;52.210;21.174;2023-02-02T07:20:40;3.10;99.90
18408;DHT22;9330;52.210;21.174;2023-02-02T07:23:08;3.30;99.90
18408;DHT22;9330;52.210;21.174;2023-02-02T07:25:35;3.10;99.90
18408;DHT22;9330;52.210;21.174;2023-02-02T07:28:02;3.20;99.90
18408;DHT22;9330;52.210;21.174;2023-02-02T07:30:28;3.10;99.90
18408;DHT22;9330;52.210;21.174;2023-02-02T07:32:55;3.20;99.90
18408;DHT22;9330;52.210;21.174;2023-02-02T07:35:22;3.00;99.90
18408;DHT22;9330;52.210;21.174;2023-02-02T07:37:51;3.00;99.90
18408;DHT22;9330;52.210;21.174;2023-02-02T07:40:20;3.00;99.90
18408;DHT22;9330;52.210;21.174;2023-02-02T07:42:47;3.10;99.90
18408;DHT22;9330;52.210;21.174;2023-02-02T07:45:14;3.00;99.90
18408;DHT22;9330;52.210;21.174;2023-02-02T07:47:41;3.00;99.90
18408;DHT22;9330;52.210;21.174;2023-02-02T07:50:09;3.00;99.90
18408;DHT22;9330;52.210;21.174;2023-02-02T07:52:36;3.00;99.90
18408;DHT22;9330;52.210;21.174;2023-02-02T07:55:04;3.10;99.90
18408;DHT22;9330;52.210;21.174;2023-02-02T07:57:32;3.00;99.90
18408;DHT22;9330;52.210;21.174;2023-02-02T07:59:59;2.90;99.90
18408;DHT22;9330;52.210;21.174;2023-02-02T08:02:26;3.00;99.90
18408;DHT22;9330;52.210;21.174;2023-02-02T08:04:52;2.90;99.90
18408;DHT22;9330;52.210;21.174;2023-02-02T08:07:19;3.00;99.90
18408;DHT22;9330;52.210;21.174;2023-02-02T08:09:49;2.90;99.90
18408;DHT22;9330;52.210;21.174;2023-02-02T08:12:16;2.90;99.90
18408;DHT22;9330;52.210;21.174;2023-02-02T08:14:44;2.90;99.90
18408;DHT22;9330;52.210;21.174;2023-02-02T08:17:11;2.90;99.90
18408;DHT22;9330;52.210;21.174;2023-02-02T08:19:38;2.90;99.90
18408;DHT22;9330;52.210;21.174;2023-02-02T08:22:05;2.80;99.90
18408;DHT22;9330;52.210;21.174;2023-02-02T08:24:32;2.90;99.90
18408;DHT22;9330;52.210;21.174;2023-02-02T08:27:05;3.00;99.90
18408;DHT22;9330;52.210;21.174;2023-02-02T08:29:32;2.90;99.90
18408;DHT22;9330;52.210;21.174;2023-02-02T08:32:00;2.90;99.90
18408;DHT22;9330;52.210;21.174;2023-02-02T08:34:27;2.90;99.90
18408;DHT22;9330;52.210;21.174;2023-02-02T08:36:54;2.90;99.90
18408;DHT22;9330;52.210;21.174;2023-02-02T08:39:21;2.80;99.90
18408;DHT22;9330;52.210;21.174;2023-02-02T08:41:49;2.90;99.90
18408;DHT22;9330;52.210;21.174;2023-02-02T08:44:15;2.80;99.90
18408;DHT22;9330;52.210;21.174;2023-02-02T08:46:42;3.00;99.90
18408;DHT22;9330;52.210;21.174;2023-02-02T08:49:11;2.90;99.90
18408;DHT22;9330;52.210;21.174;2023-02-02T08:51:38;3.00;99.90
18408;DHT22;9330;52.210;21.174;2023-02-02T08:54:06;2.90;99.90
18408;DHT22;9330;52.210;21.174;2023-02-02T08:56:33;2.90;99.90
18408;DHT22;9330;52.210;21.174;2023-02-02T08:59:00;2.90;99.90
18408;DHT22;9330;52.210;21.174;2023-02-02T09:01:30;2.80;99.90
18408;DHT22;9330;52.210;21.174;2023-02-02T09:03:59;2.80;99.90
18408;DHT22;9330;52.210;21.174;2023-02-02T09:06:31;2.90;99.90
18408;DHT22;9330;52.210;21.174;2023-02-02T09:08:58;2.90;99.90
18408;DHT22;9330;52.210;21.174;2023-02-02T09:11:25;2.90;99.90
18408;DHT22;9330;52.210;21.174;2023-02-02T09:13:54;2.90;99.90
18408;DHT22;9330;52.210;21.174;2023-02-02T09:16:22;2.90;99.90
18408;DHT22;9330;52.210;21.174;2023-02-02T09:18:50;2.90;99.90
18408;DHT22;9330;52.210;21.174;2023-02-02T09:21:18;2.80;99.90
18408;DHT22;9330;52.210;21.174;2023-02-02T09:23:47;2.90;99.90
18408;DHT22;9330;52.210;21.174;2023-02-02T09:26:16;2.90;99.90
18408;DHT22;9330;52.210;21.174;2023-02-02T09:28:46;2.90;99.90
18408;DHT22;9330;52.210;21.174;2023-02-02T09:31:13;2.90;99.90
18408;DHT22;9330;52.210;21.174;2023-02-02T09:33:41;2.90;99.90
18408;DHT22;9330;52.210;21.174;2023-02-02T09:36:10;3.00;99.90
18408;DHT22;9330;52.210;21.174;2023-02-02T09:38:38;3.00;99.90
18408;DHT22;9330;52.210;21.174;2023-02-02T09:41:48;3.00;99.90
18408;DHT22;9330;52.210;21.174;2023-02-02T09:44:31;3.00;99.90
18408;DHT22;9330;52.210;21.174;2023-02-02T09:47:09;3.00;99.90
18408;DHT22;9330;52.210;21.174;2023-02-02T09:49:48;3.10;99.90
18408;DHT22;9330;52.210;21.174;2023-02-02T09:52:17;3.00;99.90
18408;DHT22;9330;52.210;21.174;2023-02-02T09:54:47;3.10;99.90
18408;DHT22;9330;52.210;21.174;2023-02-02T09:57:21;3.00;99.90
18408;DHT22;9330;52.210;21.174;2023-02-02T09:59:50;3.10;99.90
18408;DHT22;9330;52.210;21.174;2023-02-02T10:02:25;3.00;99.90
18408;DHT22;9330;52.210;21.174;2023-02-02T10:04:59;3.00;99.90
18408;DHT22;9330;52.210;21.174;2023-02-02T10:07:32;3.00;99.90
18408;DHT22;9330;52.210;21.174;2023-02-02T10:10:03;2.90;99.90
18408;DHT22;9330;52.210;21.174;2023-02-02T10:12:37;2.90;99.90
18408;DHT22;9330;52.210;21.174;2023-02-02T10:15:14;2.90;99.90
18408;DHT22;9330;52.210;21.174;2023-02-02T10:17:50;3.00;99.90
18408;DHT22;9330;52.210;21.174;2023-02-02T10:20:25;2.80;99.90
18408;DHT22;9330;52.210;21.174;2023-02-02T10:23:03;3.00;99.90
18408;DHT22;9330;52.210;21.174;2023-02-02T10:25:31;3.00;99.90
18408;DHT22;9330;52.210;21.174;2023-02-02T10:28:05;3.00;99.90
18408;DHT22;9330;52.210;21.174;2023-02-02T10:30:39;3.00;99.90
18408;DHT22;9330;52.210;21.174;2023-02-02T10:33:18;3.10;99.90
18408;DHT22;9330;52.210;21.174;2023-02-02T10:35:52;3.10;99.90
18408;DHT22;9330;52.210;21.174;2023-02-02T10:38:27;3.10;99.90
18408;DHT22;9330;52.210;21.174;2023-02-02T10:41:03;3.10;99.90
18408;DHT22;9330;52.210;21.174;2023-02-02T10:43:47;3.10;99.90
18408;DHT22;9330;52.210;21.174;2023-02-02T10:46:21;3.20;99.90
18408;DHT22;9330;52.210;21.174;2023-02-02T10:48:58;3.20;99.90
18408;DHT22;9330;52.210;21.174;2023-02-02T10:51:28;3.20;99.90
18408;DHT22;9330;52.210;21.174;2023-02-02T10:53:57;3.20;99.90
18408;DHT22;9330;52.210;21.174;2023-02-02T10:56:28;3.10;99.90
18408;DHT22;9330;52.210;21.174;2023-02-02T10:59:01;3.10;99.90
18408;DHT22;9330;52.210;21.174;2023-02-02T11:01:28;3.20;99.90
18408;DHT22;9330;52.210;21.174;2023-02-02T11:03:55;3.10;99.90
18408;DHT22;9330;52.210;21.174;2023-02-02T11:06:40;3.10;99.90
18408;DHT22;9330;52.210;21.174;2023-02-02T11:09:19;3.10;99.90
18408;DHT22;9330;52.210;21.174;2023-02-02T11:11:50;3.10;99.90
18408;DHT22;9330;52.210;21.174;2023-02-02T11:14:25;3.10;99.90
18408;DHT22;9330;52.210;21.174;2023-02-02T11:17:00;3.10;99.90
18408;DHT22;9330;52.210;21.174;2023-02-02T11:19:29;3.10;99.90
18408;DHT22;9330;52.210;21.174;2023-02-02T11:21:57;3.10;99.90
18408;DHT22;9330;52.210;21.174;2023-02-02T11:24:27;3.30;99.90
18408;DHT22;9330;52.210;21.174;2023-02-02T11:26:55;3.40;99.90
18408;DHT22;9330;52.210;21.174;2023-02-02T11:29:29;3.20;99.90
18408;DHT22;9330;52.210;21.174;2023-02-02T11:31:56;3.10;99.90
18408;DHT22;9330;52.210;21.174;2023-02-02T11:34:25;3.10;99.90
18408;DHT22;9330;52.210;21.174;2023-02-02T11:37:08;3.00;99.90
18408;DHT22;9330;52.210;21.174;2023-02-02T11:39:36;3.00;99.90
18408;DHT22;9330;52.210;21.174;2023-02-02T11:42:05;3.00;99.90
18408;DHT22;9330;52.210;21.174;2023-02-02T11:44:34;2.90;99.90
18408;DHT22;9330;52.210;21.174;2023-02-02T11:47:04;2.90;99.90
18408;DHT22;9330;52.210;21.174;2023-02-02T11:49:34;2.90;99.90
18408;DHT22;9330;52.210;21.174;2023-02-02T11:52:05;3.10;99.90
18408;DHT22;9330;52.210;21.174;2023-02-02T11:54:34;3.00;99.90
18408;DHT22;9330;52.210;21.174;2023-02-02T11:57:04;3.00;99.90
18408;DHT22;9330;52.210;21.174;2023-02-02T11:59:36;3.10;99.90
18408;DHT22;9330;52.210;21.174;2023-02-02T12:02:24;3.20;99.90
18408;DHT22;9330;52.210;21.174;2023-02-02T12:04:53;3.10;99.90
18408;DHT22;9330;52.210;21.174;2023-02-02T12:07:26;3.20;99.90
18408;DHT22;9330;52.210;21.174;2023-02-02T12:09:56;3.20;99.90
18408;DHT22;9330;52.210;21.174;2023-02-02T12:12:37;3.20;99.90
18408;DHT22;9330;52.210;21.174;2023-02-02T12:15:16;3.30;99.90
18408;DHT22;9330;52.210;21.174;2023-02-02T12:17:45;3.40;99.90
18408;DHT22;9330;52.210;21.174;2023-02-02T12:20:21;3.40;99.90
18408;DHT22;9330;52.210;21.174;2023-02-02T12:23:02;3.50;99.90
18408;DHT22;9330;52.210;21.174;2023-02-02T12:25:53;3.50;99.90
18408;DHT22;9330;52.210;21.174;2023-02-02T12:28:41;3.50;99.90
18408;DHT22;9330;52.210;21.174;2023-02-02T12:31:21;3.50;99.90
18408;DHT22;9330;52.210;21.174;2023-02-02T12:33:55;3.50;99.90
18408;DHT22;9330;52.210;21.174;2023-02-02T12:36:39;3.60;99.90
18408;DHT22;9330;52.210;21.174;2023-02-02T12:39:16;3.50;99.90
18408;DHT22;9330;52.210;21.174;2023-02-02T12:42:08;3.50;99.90
18408;DHT22;9330;52.210;21.174;2023-02-02T12:44:47;3.50;99.90
18408;DHT22;9330;52.210;21.174;2023-02-02T12:47:23;3.50;99.90
18408;DHT22;9330;52.210;21.174;2023-02-02T12:50:05;3.50;99.90
18408;DHT22;9330;52.210;21.174;2023-02-02T12:52:53;3.50;99.90
18408;DHT22;9330;52.210;21.174;2023-02-02T12:55:28;3.50;99.90
18408;DHT22;9330;52.210;21.174;2023-02-02T12:58:06;3.50;99.90
18408;DHT22;9330;52.210;21.174;2023-02-02T13:03:33;3.40;99.90
18408;DHT22;9330;52.210;21.174;2023-02-02T13:06:24;3.40;99.90
18408;DHT22;9330;52.210;21.174;2023-02-02T13:08:59;3.30;99.90
18408;DHT22;9330;52.210;21.174;2023-02-02T13:11:34;3.20;99.90
18408;DHT22;9330;52.210;21.174;2023-02-02T13:14:07;3.30;99.90
18408;DHT22;9330;52.210;21.174;2023-02-02T13:16:36;3.30;99.90
18408;DHT22;9330;52.210;21.174;2023-02-02T13:19:10;3.10;99.90
18408;DHT22;9330;52.210;21.174;2023-02-02T13:21:40;3.20;99.90
18408;DHT22;9330;52.210;21.174;2023-02-02T13:24:13;3.10;99.90
18408;DHT22;9330;52.210;21.174;2023-02-02T13:26:42;3.10;99.90
18408;DHT22;9330;52.210;21.174;2023-02-02T13:29:30;3.20;99.90
18408;DHT22;9330;52.210;21.174;2023-02-02T13:32:03;3.30;99.90
18408;DHT22;9330;52.210;21.174;2023-02-02T13:34:40;3.20;99.90
18408;DHT22;9330;52.210;21.174;2023-02-02T13:37:15;3.20;99.90
18408;DHT22;9330;52.210;21.174;2023-02-02T13:39:46;3.20;99.90
18408;DHT22;9330;52.210;21.174;2023-02-02T13:42:23;3.30;99.90
18408;DHT22;9330;52.210;21.174;2023-02-02T13:44:56;3.20;99.90
18408;DHT22;9330;52.210;21.174;2023-02-02T13:47:29;3.20;99.90
18408;DHT22;9330;52.210;21.174;2023-02-02T13:50:04;3.20;99.90
18408;DHT22;9330;52.210;21.174;2023-02-02T13:52:52;3.20;99.90
18408;DHT22;9330;52.210;21.174;2023-02-02T13:55:38;3.10;99.90
18408;DHT22;9330;52.210;21.174;2023-02-02T13:58:53;3.10;99.90
18408;DHT22;9330;52.210;21.174;2023-02-02T14:01:23;3.10;99.90
18408;DHT22;9330;52.210;21.174;2023-02-02T14:03:53;3.20;99.90
18408;DHT22;9330;52.210;21.174;2023-02-02T14:06:24;3.10;99.90
18408;DHT22;9330;52.210;21.174;2023-02-02T14:08:54;3.20;99.90
18408;DHT22;9330;52.210;21.174;2023-02-02T14:11:25;3.20;99.90
18408;DHT22;9330;52.210;21.174;2023-02-02T14:13:55;3.20;99.90
18408;DHT22;9330;52.210;21.174;2023-02-02T14:16:49;3.20;99.90
18408;DHT22;9330;52.210;21.174;2023-02-02T14:19:51;3.20;99.90
18408;DHT22;9330;52.210;21.174;2023-02-02T14:22:38;3.30;99.90
18408;DHT22;9330;52.210;21.174;2023-02-02T14:28:09;3.30;99.90
18408;DHT22;9330;52.210;21.174;2023-02-02T14:30:37;3.40;99.90
18408;DHT22;9330;52.210;21.174;2023-02-02T14:33:24;3.30;99.90
18408;DHT22;9330;52.210;21.174;2023-02-02T14:35:59;3.40;99.90
18408;DHT22;9330;52.210;21.174;2023-02-02T14:41:40;3.30;99.90
18408;DHT22;9330;52.210;21.174;2023-02-02T14:44:27;3.30;99.90
18408;DHT22;9330;52.210;21.174;2023-02-02T14:46:55;3.30;99.90
18408;DHT22;9330;52.210;21.174;2023-02-02T14:49:26;3.40;99.90
18408;DHT22;9330;52.210;21.174;2023-02-02T14:52:00;3.30;99.90
18408;DHT22;9330;52.210;21.174;2023-02-02T14:54:34;3.40;99.90
18408;DHT22;9330;52.210;21.174;2023-02-02T14:57:03;3.30;99.90
18408;DHT22;9330;52.210;21.174;2023-02-02T14:59:34;3.30;99.90
18408;DHT22;9330;52.210;21.174;2023-02-02T15:02:14;3.20;99.90
18408;DHT22;9330;52.210;21.174;2023-02-02T15:04:42;3.20;99.90
18408;DHT22;9330;52.210;21.174;2023-02-02T15:07:35;3.20;99.90
18408;DHT22;9330;52.210;21.174;2023-02-02T15:10:04;3.30;99.90
18408;DHT22;9330;52.210;21.174;2023-02-02T15:12:37;3.20;99.90
18408;DHT22;9330;52.210;21.174;2023-02-02T15:15:11;3.20;99.90
18408;DHT22;9330;52.210;21.174;2023-02-02T15:17:47;3.20;99.90
18408;DHT22;9330;52.210;21.174;2023-02-02T15:20:21;3.20;99.90
18408;DHT22;9330;52.210;21.174;2023-02-02T15:22:54;3.20;99.90
18408;DHT22;9330;52.210;21.174;2023-02-02T15:25:26;3.20;99.90
18408;DHT22;9330;52.210;21.174;2023-02-02T15:27:57;3.40;99.90
18408;DHT22;9330;52.210;21.174;2023-02-02T15:30:27;3.20;99.90
18408;DHT22;9330;52.210;21.174;2023-02-02T15:33:01;3.20;99.90
18408;DHT22;9330;52.210;21.174;2023-02-02T15:35:30;3.30;99.90
18408;DHT22;9330;52.210;21.174;2023-02-02T15:38:00;3.30;99.90
18408;DHT22;9330;52.210;21.174;2023-02-02T15:40:30;3.20;99.90
18408;DHT22;9330;52.210;21.174;2023-02-02T15:42:59;3.30;99.90
18408;DHT22;9330;52.210;21.174;2023-02-02T15:45:43;3.20;99.90
18408;DHT22;9330;52.210;21.174;2023-02-02T15:48:23;3.10;99.90
18408;DHT22;9330;52.210;21.174;2023-02-02T15:50:52;3.10;99.90
18408;DHT22;9330;52.210;21.174;2023-02-02T15:53:23;3.20;99.90
18408;DHT22;9330;52.210;21.174;2023-02-02T15:55:52;3.00;99.90
18408;DHT22;9330;52.210;21.174;2023-02-02T15:58:22;3.10;99.90
18408;DHT22;9330;52.210;21.174;2023-02-02T16:00:55;3.00;99.90
18408;DHT22;9330;52.210;21.174;2023-02-02T16:03:25;2.90;99.90
18408;DHT22;9330;52.210;21.174;2023-02-02T16:05:55;2.90;99.90
18408;DHT22;9330;52.210;21.174;2023-02-02T16:08:25;2.90;99.90
18408;DHT22;9330;52.210;21.174;2023-02-02T16:11:03;2.90;99.90
18408;DHT22;9330;52.210;21.174;2023-02-02T16:13:31;2.70;99.90
18408;DHT22;9330;52.210;21.174;2023-02-02T16:15:59;2.70;99.90
18408;DHT22;9330;52.210;21.174;2023-02-02T16:18:27;2.70;99.90
18408;DHT22;9330;52.210;21.174;2023-02-02T16:20:54;2.60;99.90
18408;DHT22;9330;52.210;21.174;2023-02-02T16:23:27;2.60;99.90
18408;DHT22;9330;52.210;21.174;2023-02-02T16:25:58;2.50;99.90